Time;durP1;ratioP1;P1;durP2;ratioP2;P2;SDS_P1;SDS_P2;PMS_P1;PMS_P2;Temp;Humidity;BMP_temperature;BMP_pressure;BME280_temperature;BME280_humidity;BME280_pressure;Samples;Min_cycle;Max_cycle;Signal;HPM_P1;HPM_P2
2024/03/01 00:02:14;;;;;;;;;70.00;51.60;;;;;12.73;100.00;98472.84;7784159;22;98940;-54
2024/03/01 00:05:17;;;;;;;;;66.60;51.00;;;;;12.70;100.00;98467.94;7803226;22;98299;-55
2024/03/01 00:08:21;;;;;;;;;65.67;50.00;;;;;12.70;100.00;98457.13;7792196;22;98171;-54
2024/03/01 00:11:25;;;;;;;;;65.20;50.00;;;;;12.41;100.00;98415.00;7791714;22;99318;-54
2024/03/01 00:14:28;;;;;;;;;67.60;51.80;;;;;12.39;100.00;98406.31;7799598;22;97690;-55
2024/03/01 00:17:31;;;;;;;;;68.25;52.00;;;;;12.74;100.00;98458.28;7759963;22;101322;-56
2024/03/01 00:20:35;;;;;;;;;68.75;51.00;;;;;12.69;100.00;98452.78;7811964;22;96931;-56
2024/03/01 00:23:39;;;;;;;;;67.00;51.75;;;;;12.80;100.00;98451.06;7810444;22;96207;-57
2024/03/01 00:26:45;;;;;;;;;66.60;51.00;;;;;12.52;100.00;98422.19;7808698;22;99116;-55
2024/03/01 00:29:48;;;;;;;;;68.00;51.00;;;;;12.70;100.00;98440.91;7787176;22;96955;-54
2024/03/01 00:32:51;;;;;;;;;66.40;49.40;;;;;12.76;100.00;98439.06;7780471;22;97984;-57
2024/03/01 00:39:40;;;;;;;;;64.75;50.00;;;;;11.66;100.00;98299.09;7786093;22;98319;-57
2024/03/01 00:46:28;;;;;;;;;67.00;51.40;;;;;12.19;100.00;98400.53;7797654;22;98396;-57
2024/03/01 00:53:09;;;;;;;;;66.00;50.00;;;;;12.31;100.00;98423.75;7699143;22;96372;-57
2024/03/01 00:56:14;;;;;;;;;65.20;50.20;;;;;12.30;100.00;98411.31;7697182;22;96361;-56
2024/03/01 00:59:21;;;;;;;;;64.00;50.00;;;;;12.27;100.00;98409.06;7699015;22;96324;-56
2024/03/01 01:02:24;;;;;;;;;66.40;51.40;;;;;12.30;100.00;98407.78;7698768;22;96261;-57
2024/03/01 01:05:43;;;;;;;;;69.00;51.20;;;;;12.33;100.00;98412.69;7698538;22;96232;-57
2024/03/01 01:08:46;;;;;;;;;66.00;49.60;;;;;12.37;100.00;98400.31;7698857;22;97660;-57
2024/03/01 01:11:51;;;;;;;;;67.33;51.00;;;;;12.43;100.00;98396.63;7698605;22;96504;-57
2024/03/01 01:14:54;;;;;;;;;66.80;51.40;;;;;12.39;100.00;98388.22;7697431;22;96566;-58
2024/03/01 01:17:57;;;;;;;;;67.00;51.25;;;;;12.41;100.00;98399.56;7698928;22;96325;-57
2024/03/01 01:21:00;;;;;;;;;69.20;52.00;;;;;12.43;100.00;98394.75;7698486;22;96290;-57
2024/03/01 01:24:04;;;;;;;;;66.25;50.25;;;;;12.45;100.00;98387.22;7698959;22;97108;-57
2024/03/01 01:27:09;;;;;;;;;68.20;53.00;;;;;12.47;100.00;98381.56;7698959;22;96404;-57
2024/03/01 01:30:13;;;;;;;;;66.00;51.00;;;;;12.38;100.00;98358.72;7699474;22;96620;-57
2024/03/01 01:33:16;;;;;;;;;67.25;51.00;;;;;12.39;100.00;98368.47;7698280;22;96326;-57
2024/03/01 01:36:19;;;;;;;;;67.25;52.00;;;;;12.39;100.00;98366.59;7698997;22;96592;-57
2024/03/01 01:39:22;;;;;;;;;70.25;53.50;;;;;12.43;100.00;98354.22;7698752;22;96369;-57
2024/03/01 01:42:27;;;;;;;;;66.40;51.00;;;;;12.35;100.00;98351.09;7699204;22;96296;-57
2024/03/01 01:45:32;;;;;;;;;69.75;54.75;;;;;12.41;100.00;98350.13;7698710;22;96482;-58
2024/03/01 01:48:35;;;;;;;;;70.40;52.80;;;;;12.42;100.00;98354.44;7698186;22;96808;-57
2024/03/01 01:51:38;;;;;;;;;67.00;51.00;;;;;12.44;100.00;98346.91;7698298;22;96242;-57
2024/03/01 01:54:42;;;;;;;;;70.00;53.00;;;;;12.33;100.00;98337.81;7698677;22;96350;-57
2024/03/01 01:57:49;;;;;;;;;65.00;51.00;;;;;12.38;100.00;98343.31;7698247;22;96559;-57
2024/03/01 02:00:52;;;;;;;;;68.00;52.60;;;;;12.40;100.00;98343.91;7708047;22;96354;-58
2024/03/01 02:03:56;;;;;;;;;66.40;51.00;;;;;11.86;100.00;98307.59;7749612;22;96294;-55
2024/03/01 02:06:59;;;;;;;;;67.40;51.00;;;;;12.42;100.00;98346.34;7775588;22;98098;-56
2024/03/01 02:10:09;;;;;;;;;68.20;51.80;;;;;12.45;100.00;98330.47;7775535;22;96862;-56
2024/03/01 02:13:19;;;;;;;;;65.00;50.00;;;;;12.28;100.00;98324.22;7775496;22;96255;-56
2024/03/01 02:16:26;;;;;;;;;67.00;52.00;;;;;12.22;100.00;98325.19;7775733;22;96426;-56
2024/03/01 02:19:29;;;;;;;;;67.00;51.00;;;;;12.04;100.00;98323.56;7774806;22;96634;-56
2024/03/01 02:22:36;;;;;;;;;68.25;52.00;;;;;12.17;100.00;98329.72;7775159;22;96429;-56
2024/03/01 02:25:41;;;;;;;;;71.00;52.00;;;;;12.25;100.00;98329.31;7775467;22;96368;-56
2024/03/01 02:28:46;;;;;;;;;67.60;52.00;;;;;12.14;100.00;98304.00;7774069;22;96394;-56
2024/03/01 02:31:49;;;;;;;;;70.00;52.00;;;;;12.33;100.00;98329.72;7775670;22;96768;-55
2024/03/01 02:34:52;;;;;;;;;66.80;52.40;;;;;12.32;100.00;98322.66;7775006;22;96228;-55
2024/03/01 02:37:55;;;;;;;;;66.20;52.00;;;;;12.11;100.00;98321.53;7775416;22;96387;-56
2024/03/01 02:41:00;;;;;;;;;67.00;51.00;;;;;12.06;100.00;98307.94;7773449;22;96212;-55
2024/03/01 02:44:03;;;;;;;;;68.20;52.80;;;;;12.08;100.00;98307.69;7774815;22;96950;-56
2024/03/01 02:47:06;;;;;;;;;64.00;50.00;;;;;11.82;100.00;98292.94;7775266;22;96660;-56
2024/03/01 02:50:10;;;;;;;;;66.80;51.00;;;;;11.93;100.00;98302.84;7774408;22;96311;-56
2024/03/01 02:53:13;;;;;;;;;65.00;50.50;;;;;11.91;100.00;98287.97;7775086;22;96747;-55
2024/03/01 02:56:18;;;;;;;;;68.80;52.20;;;;;11.91;100.00;98280.69;7773491;22;97083;-55
2024/03/01 02:59:21;;;;;;;;;67.50;53.00;;;;;12.01;100.00;98294.34;7774606;22;96235;-56
2024/03/01 03:02:24;;;;;;;;;66.00;50.00;;;;;12.05;100.00;98291.97;7774975;22;96901;-55
2024/03/01 03:05:28;;;;;;;;;65.00;50.00;;;;;11.94;100.00;98284.75;7774516;22;96161;-55
2024/03/01 03:08:32;;;;;;;;;67.00;50.00;;;;;11.86;100.00;98291.41;7772772;22;96304;-56
2024/03/01 03:11:37;;;;;;;;;66.00;51.80;;;;;11.80;100.00;98281.56;7775348;22;96356;-56
2024/03/01 03:14:40;;;;;;;;;64.60;50.00;;;;;11.89;100.00;98276.56;7774888;22;96237;-53
2024/03/01 03:17:44;;;;;;;;;66.33;51.00;;;;;11.84;100.00;98276.47;7774892;22;96329;-53
2024/03/01 03:20:48;;;;;;;;;65.00;50.00;;;;;11.82;100.00;98268.66;7746772;22;97435;-53
2024/03/01 03:23:51;;;;;;;;;67.00;51.80;;;;;11.78;100.00;98270.16;7773293;22;96414;-53
2024/03/01 03:26:56;;;;;;;;;64.60;50.00;;;;;11.81;100.00;98268.88;7774403;22;96314;-53
2024/03/01 03:30:00;;;;;;;;;67.00;50.80;;;;;11.84;100.00;98273.78;7774274;22;96425;-53
2024/03/01 03:33:04;;;;;;;;;66.00;52.00;;;;;11.91;100.00;98277.16;7772646;22;96913;-53
2024/03/01 03:36:10;;;;;;;;;62.00;49.25;;;;;11.82;100.00;98286.72;7773925;22;96369;-53
2024/03/01 03:39:13;;;;;;;;;64.00;51.00;;;;;11.81;100.00;98274.28;7774228;22;96297;-53
2024/03/01 03:42:17;;;;;;;;;66.00;50.00;;;;;11.69;100.00;98282.41;7772264;22;96416;-53
2024/03/01 03:45:20;;;;;;;;;65.60;51.00;;;;;11.63;100.00;98261.81;7774559;22;96272;-53
2024/03/01 03:48:23;;;;;;;;;62.00;49.00;;;;;11.80;100.00;98273.47;7774582;22;96453;-53
2024/03/01 03:51:28;;;;;;;;;67.00;51.00;;;;;11.78;100.00;98262.06;7774218;22;96324;-53
2024/03/01 03:54:32;;;;;;;;;65.40;50.00;;;;;11.82;100.00;98257.84;7772000;22;96267;-53
2024/03/01 03:57:36;;;;;;;;;67.40;50.00;;;;;11.80;100.00;98264.53;7776323;22;96809;-53
2024/03/01 04:00:40;;;;;;;;;63.00;50.00;;;;;11.79;100.00;98260.19;7775801;22;96372;-53
2024/03/01 04:03:43;;;;;;;;;65.60;51.00;;;;;11.72;100.00;98265.75;7774923;22;96569;-53
2024/03/01 04:06:46;;;;;;;;;65.00;50.60;;;;;11.73;100.00;98267.38;7776244;22;96575;-53
2024/03/01 04:09:50;;;;;;;;;62.60;48.00;;;;;11.54;100.00;98276.72;7776300;22;96378;-53
2024/03/01 04:12:55;;;;;;;;;63.25;49.50;;;;;11.29;100.00;98271.69;7776144;22;96112;-53
2024/03/01 04:15:58;;;;;;;;;63.25;49.00;;;;;11.33;100.00;98278.25;7776184;22;96364;-53
2024/03/01 04:19:02;;;;;;;;;62.60;49.60;;;;;11.21;100.00;98280.19;7776266;22;96900;-53
2024/03/01 04:22:05;;;;;;;;;62.00;49.60;;;;;11.36;100.00;98288.56;7776275;22;96285;-53
2024/03/01 04:25:09;;;;;;;;;63.40;50.00;;;;;11.48;100.00;98285.81;7775300;22;96816;-53
2024/03/01 04:28:14;;;;;;;;;66.00;48.80;;;;;11.20;100.00;98243.47;7775941;22;96329;-53
2024/03/01 04:31:17;;;;;;;;;63.80;48.80;;;;;11.41;100.00;98285.97;7774679;22;96443;-53
2024/03/01 04:34:20;;;;;;;;;61.80;49.20;;;;;11.48;100.00;98292.03;7776084;22;97156;-53
2024/03/01 04:37:24;;;;;;;;;62.80;47.60;;;;;11.58;100.00;98286.81;7774319;22;96258;-53
2024/03/01 04:40:27;;;;;;;;;62.00;49.00;;;;;11.70;100.00;98286.75;7774653;22;96414;-53
2024/03/01 04:43:31;;;;;;;;;61.00;47.50;;;;;11.79;100.00;98288.03;7773889;22;96399;-53
2024/03/01 04:46:39;;;;;;;;;60.80;48.00;;;;;11.70;100.00;98282.19;7774237;22;96348;-53
2024/03/01 04:49:45;;;;;;;;;60.00;48.00;;;;;11.57;100.00;98284.38;7774528;22;96182;-53
2024/03/01 04:52:48;;;;;;;;;64.00;48.20;;;;;11.51;100.00;98269.13;7775725;22;96965;-53
2024/03/01 04:55:51;;;;;;;;;60.25;48.00;;;;;11.56;100.00;98280.03;7775913;22;96575;-53
2024/03/01 04:58:56;;;;;;;;;65.75;50.00;;;;;11.42;100.00;98281.38;7774801;22;96915;-53
2024/03/01 05:01:59;;;;;;;;;61.75;48.25;;;;;11.45;100.00;98280.88;7775149;22;96267;-53
2024/03/01 05:05:02;;;;;;;;;62.80;46.80;;;;;11.52;100.00;98265.38;7774978;22;96663;-53
2024/03/01 05:08:07;;;;;;;;;63.00;50.00;;;;;11.63;100.00;98265.28;7775274;22;96282;-53
2024/03/01 05:11:11;;;;;;;;;66.80;50.00;;;;;11.64;100.00;98266.94;7775678;22;96232;-53
2024/03/01 05:14:16;;;;;;;;;63.00;49.00;;;;;11.68;100.00;98265.38;7771141;22;97004;-53
2024/03/01 05:17:19;;;;;;;;;62.40;48.60;;;;;11.68;100.00;98249.19;7774477;22;96986;-53
2024/03/01 05:20:22;;;;;;;;;62.00;48.00;;;;;11.69;100.00;98258.94;7775141;22;96487;-53
2024/03/01 05:23:26;;;;;;;;;63.00;49.00;;;;;11.66;100.00;98258.59;7775123;22;96294;-53
2024/03/01 05:26:30;;;;;;;;;62.00;48.00;;;;;11.50;100.00;98262.91;7769871;22;96915;-53
2024/03/01 05:29:34;;;;;;;;;62.00;48.00;;;;;11.33;100.00;98266.66;7746673;22;96689;-53
2024/03/01 05:32:39;;;;;;;;;62.75;49.00;;;;;11.30;100.00;98271.44;7773584;22;96284;-52
2024/03/01 05:35:43;;;;;;;;;62.00;48.00;;;;;11.27;100.00;98271.13;7777317;22;96574;-52
2024/03/01 05:38:47;;;;;;;;;63.00;48.75;;;;;11.24;100.00;98277.81;7774764;22;96346;-52
2024/03/01 05:41:50;;;;;;;;;64.60;49.00;;;;;11.13;100.00;98276.00;7775465;22;96245;-52
2024/03/01 05:44:54;;;;;;;;;63.00;49.00;;;;;11.21;100.00;98281.00;7774874;22;96876;-53
2024/03/01 05:47:57;;;;;;;;;62.00;48.00;;;;;11.28;100.00;98289.78;7775738;22;96259;-52
2024/03/01 05:51:00;;;;;;;;;62.25;48.50;;;;;11.23;100.00;98294.25;7774664;22;96452;-53
2024/03/01 05:54:05;;;;;;;;;62.80;48.00;;;;;11.17;100.00;98296.03;7775691;22;96844;-52
2024/03/01 05:57:10;;;;;;;;;63.00;48.00;;;;;10.93;100.00;98278.28;7776256;22;96900;-53
2024/03/01 06:00:25;;;;;;;;;61.00;48.00;;;;;10.95;100.00;98305.00;7774956;22;97094;-53
2024/03/01 06:03:28;;;;;;;;;63.00;48.75;;;;;10.99;100.00;98298.09;7775764;22;96297;-52
2024/03/01 06:06:31;;;;;;;;;62.40;49.00;;;;;11.09;100.00;98298.28;7775554;22;96576;-52
2024/03/01 06:09:34;;;;;;;;;61.00;48.50;;;;;10.96;100.00;98298.53;7776893;22;96547;-52
2024/03/01 06:12:37;;;;;;;;;61.40;48.00;;;;;10.81;100.00;98296.34;7776839;22;97103;-52
2024/03/01 06:15:42;;;;;;;;;62.00;49.00;;;;;10.87;100.00;98290.00;7777735;22;96289;-52
2024/03/01 06:18:45;;;;;;;;;61.00;48.00;;;;;11.03;100.00;98280.34;7775438;22;96322;-53
2024/03/01 06:21:48;;;;;;;;;58.40;46.00;;;;;11.08;100.00;98275.88;7776350;22;96251;-52
2024/03/01 06:24:51;;;;;;;;;61.00;48.00;;;;;11.06;100.00;98272.59;7776590;22;96282;-52
2024/03/01 06:27:55;;;;;;;;;65.50;48.00;;;;;11.05;100.00;98262.88;7777084;22;96411;-52
2024/03/01 06:30:59;;;;;;;;;64.00;48.00;;;;;11.09;100.00;98274.81;7776978;22;96269;-52
2024/03/01 06:34:02;;;;;;;;;67.67;51.00;;;;;11.26;100.00;98283.78;7777258;22;96354;-52
2024/03/01 06:37:06;;;;;;;;;63.60;49.00;;;;;11.34;100.00;98287.97;7776023;22;96283;-52
2024/03/01 06:40:11;;;;;;;;;63.75;49.75;;;;;11.40;100.00;98295.13;7777067;22;96303;-52
2024/03/01 06:43:14;;;;;;;;;64.20;49.00;;;;;11.34;100.00;98284.47;7771657;22;96776;-53
2024/03/01 06:46:19;;;;;;;;;61.60;49.00;;;;;11.49;100.00;98277.47;7771636;22;97099;-52
2024/03/01 06:49:22;;;;;;;;;63.20;50.00;;;;;11.59;100.00;98285.75;7772584;22;96891;-52
2024/03/01 06:52:25;;;;;;;;;69.40;51.80;;;;;11.68;100.00;98288.88;7773655;22;97027;-52
2024/03/01 06:55:28;;;;;;;;;67.00;51.40;;;;;11.71;100.00;98283.81;7774403;22;96303;-53
2024/03/01 06:58:32;;;;;;;;;68.60;51.00;;;;;11.79;100.00;98274.53;7775014;22;96379;-52
2024/03/01 07:01:39;;;;;;;;;64.60;50.00;;;;;11.65;100.00;98233.47;7777054;22;96928;-52
2024/03/01 07:04:42;;;;;;;;;67.00;51.00;;;;;11.81;100.00;98258.91;7776809;22;96395;-52
2024/03/01 07:07:45;;;;;;;;;65.20;51.00;;;;;11.81;100.00;98272.41;7776568;22;96216;-52
2024/03/01 07:10:48;;;;;;;;;66.00;51.00;;;;;11.82;100.00;98276.75;7776320;22;96292;-52
2024/03/01 07:13:51;;;;;;;;;68.00;51.40;;;;;11.81;100.00;98272.41;7776942;22;97070;-52
2024/03/01 07:16:56;;;;;;;;;69.80;53.80;;;;;11.89;100.00;98277.38;7776590;22;96163;-52
2024/03/01 07:19:59;;;;;;;;;69.00;52.20;;;;;11.94;100.00;98282.88;7776569;22;96381;-52
2024/03/01 07:23:03;;;;;;;;;68.00;51.00;;;;;11.92;100.00;98276.91;7776361;22;96334;-52
2024/03/01 07:26:06;;;;;;;;;67.75;52.50;;;;;11.86;100.00;98280.59;7777078;22;96294;-52
2024/03/01 07:29:09;;;;;;;;;67.40;52.40;;;;;12.02;100.00;98279.75;7776043;22;96232;-52
2024/03/01 07:32:14;;;;;;;;;64.40;50.40;;;;;11.92;100.00;98281.50;7777309;22;97023;-52
2024/03/01 07:35:17;;;;;;;;;65.00;50.60;;;;;11.83;100.00;98282.94;7777505;22;96730;-52
2024/03/01 07:38:20;;;;;;;;;66.50;51.00;;;;;11.82;100.00;98294.84;7778269;22;96465;-52
2024/03/01 07:41:23;;;;;;;;;68.00;50.60;;;;;11.97;100.00;98285.06;7777886;22;96312;-52
2024/03/01 07:44:26;;;;;;;;;66.60;51.00;;;;;12.17;100.00;98278.41;7778393;22;96306;-52
2024/03/01 07:47:31;;;;;;;;;65.80;50.20;;;;;12.15;100.00;98284.84;7778311;22;96401;-52
2024/03/01 07:50:35;;;;;;;;;64.50;50.50;;;;;12.05;100.00;98283.88;7778416;22;96362;-54
2024/03/01 07:53:39;;;;;;;;;68.20;50.60;;;;;12.17;100.00;98284.59;7778436;22;96221;-54
2024/03/01 07:56:42;;;;;;;;;66.40;51.20;;;;;12.34;100.00;98276.47;7778537;22;96560;-54
2024/03/01 07:59:45;;;;;;;;;66.00;50.60;;;;;12.49;100.00;98266.72;7778849;22;96967;-54
2024/03/01 08:03:06;;;;;;;;;65.40;50.40;;;;;12.44;100.00;98274.75;7778933;22;96234;-54
2024/03/01 08:06:09;;;;;;;;;67.50;50.25;;;;;12.43;100.00;98267.69;7779350;22;96872;-54
2024/03/01 08:09:17;;;;;;;;;68.40;52.00;;;;;12.46;100.00;98258.28;7778816;22;97487;-54
2024/03/01 08:12:21;;;;;;;;;67.60;52.00;;;;;12.58;100.00;98254.41;7778665;22;96548;-54
2024/03/01 08:15:28;;;;;;;;;66.00;51.00;;;;;12.75;100.00;98253.53;7778773;22;96293;-54
2024/03/01 08:18:38;;;;;;;;;66.20;50.00;;;;;12.95;100.00;98265.41;7779087;22;96266;-54
2024/03/01 08:21:41;;;;;;;;;64.00;50.00;;;;;13.08;100.00;98260.69;7778906;22;96757;-54
2024/03/01 08:24:46;;;;;;;;;66.00;51.00;;;;;13.19;100.00;98267.91;7778247;22;96188;-54
2024/03/01 08:27:56;;;;;;;;;66.20;50.80;;;;;13.01;100.00;98269.81;7778597;22;96869;-54
2024/03/01 08:31:03;;;;;;;;;65.25;50.00;;;;;12.97;100.00;98255.16;7777846;22;96273;-54
2024/03/01 08:34:17;;;;;;;;;66.00;51.00;;;;;13.02;100.00;98251.69;7777886;22;96488;-54
2024/03/01 08:37:24;;;;;;;;;68.33;51.67;;;;;12.92;100.00;98259.69;7777968;22;96179;-54
2024/03/01 08:40:54;;;;;;;;;64.20;50.20;;;;;12.97;100.00;98268.69;7777441;22;97207;-54
2024/03/01 08:43:58;;;;;;;;;67.40;53.00;;;;;12.96;100.00;98258.13;7777766;22;96330;-54
2024/03/01 08:47:02;;;;;;;;;67.00;51.60;;;;;12.90;100.00;98246.41;7777595;22;96255;-54
2024/03/01 08:50:44;;;;;;;;;70.00;52.20;;;;;13.08;100.00;98245.28;7777492;22;96242;-54
2024/03/01 08:54:02;;;;;;;;;66.00;52.00;;;;;13.23;100.00;98261.72;7777961;22;96347;-54
2024/03/01 08:57:23;;;;;;;;;71.40;52.00;;;;;12.94;100.00;98271.09;7777616;22;96473;-54
2024/03/01 09:00:37;;;;;;;;;70.00;53.00;;;;;12.89;100.00;98261.03;7776544;22;96898;-53
2024/03/01 09:03:42;;;;;;;;;71.00;53.00;;;;;13.02;100.00;98262.53;7774107;22;96282;-53
2024/03/01 09:06:50;;;;;;;;;66.80;52.40;;;;;12.98;100.00;98251.41;7774914;22;97062;-53
2024/03/01 09:09:55;;;;;;;;;68.20;51.00;;;;;12.95;100.00;98238.34;7774656;22;96273;-53
2024/03/01 09:12:59;;;;;;;;;69.75;53.00;;;;;13.23;100.00;98258.19;7774299;22;96513;-53
2024/03/01 09:16:02;;;;;;;;;68.75;52.75;;;;;13.19;100.00;98270.63;7746566;22;96162;-53
2024/03/01 09:19:06;;;;;;;;;68.00;52.60;;;;;13.31;100.00;98250.44;7774241;22;96989;-53
2024/03/01 09:22:10;;;;;;;;;69.40;52.40;;;;;13.51;100.00;98251.72;7774114;22;97020;-53
2024/03/01 09:28:41;;;;;;;;;67.60;52.00;;;;;13.63;100.00;98261.34;6310732;27;95993;-55
2024/03/01 09:31:44;;;;;;;;;69.00;53.00;;;;;13.65;100.00;98278.13;6278064;27;97161;-55
2024/03/01 09:34:48;;;;;;;;;67.40;52.60;;;;;13.71;100.00;98265.47;6257771;27;96490;-55
2024/03/01 09:37:51;;;;;;;;;67.00;51.75;;;;;14.14;100.00;98275.31;6257256;27;96485;-55
2024/03/01 09:41:22;;;;;;;;;66.80;52.00;;;;;14.32;100.00;98274.88;6257239;27;96392;-55
2024/03/01 09:44:43;;;;;;;;;65.00;51.40;;;;;14.36;100.00;98286.06;6233590;27;96680;-55
2024/03/01 09:48:06;;;;;;;;;67.00;51.00;;;;;14.46;100.00;98281.56;6257113;27;96443;-55
2024/03/01 09:51:23;;;;;;;;;67.20;51.20;;;;;14.75;100.00;98265.72;6257431;27;97096;-55
2024/03/01 09:54:36;;;;;;;;;65.20;50.80;;;;;15.05;100.00;98278.63;6257066;27;96332;-55
2024/03/01 09:57:50;;;;;;;;;64.60;50.40;;;;;15.27;100.00;98268.38;6257400;27;96389;-56
2024/03/01 10:01:06;;;;;;;;;65.60;50.80;;;;;15.44;100.00;98270.88;6256930;27;96274;-55
2024/03/01 10:04:36;;;;;;;;;63.00;49.00;;;;;15.68;100.00;98271.22;6257339;27;96484;-55
2024/03/01 10:07:47;;;;;;;;;65.33;51.00;;;;;15.78;100.00;98253.03;6256975;27;96408;-55
2024/03/01 10:11:02;;;;;;;;;66.75;51.25;;;;;15.67;100.00;98250.56;6259301;27;96432;-56
2024/03/01 10:14:18;;;;;;;;;68.40;51.40;;;;;15.56;100.00;98242.38;6259171;27;96275;-56
2024/03/01 10:17:43;;;;;;;;;65.80;50.60;;;;;15.68;100.00;98244.03;6278992;27;96671;-56
2024/03/01 10:20:56;;;;;;;;;66.50;51.25;;;;;15.74;100.00;98237.50;6284672;27;96266;-56
2024/03/01 10:24:19;;;;;;;;;63.20;49.60;;;;;15.84;100.00;98248.38;6284828;27;96396;-56
2024/03/01 10:27:29;;;;;;;;;67.00;53.00;;;;;16.04;100.00;98238.34;6273632;27;96279;-56
2024/03/01 10:30:46;;;;;;;;;69.00;51.00;;;;;16.26;100.00;98248.94;6284991;27;96402;-56
2024/03/01 10:33:57;;;;;;;;;68.20;52.00;;;;;16.35;100.00;98246.47;6283817;27;96990;-56
2024/03/01 10:37:13;;;;;;;;;64.75;50.00;;;;;16.68;100.00;98247.78;6284268;27;96288;-56
2024/03/01 10:40:17;;;;;;;;;63.00;48.25;;;;;16.93;100.00;98244.16;6266178;27;96394;-56
2024/03/01 10:43:33;;;;;;;;;66.75;51.00;;;;;17.33;100.00;98228.47;6266738;27;96828;-56
2024/03/01 10:46:39;;;;;;;;;62.00;49.00;;;;;17.96;100.00;98239.50;6248328;27;98347;-56
2024/03/01 10:49:58;;;;;;;;;63.40;51.00;;;;;18.52;100.00;98241.72;6265603;27;96359;-56
2024/03/01 10:53:05;;;;;;;;;60.00;48.00;;;;;18.90;100.00;98237.25;6266017;27;96309;-56
2024/03/01 10:56:14;;;;;;;;;61.40;48.00;;;;;19.51;100.00;98233.72;6266036;27;96608;-56
2024/03/01 10:59:26;;;;;;;;;61.00;48.00;;;;;20.06;100.00;98234.78;6265950;27;96346;-56
2024/03/01 11:02:34;;;;;;;;;59.60;47.60;;;;;20.47;100.00;98213.03;6265799;27;96361;-57
2024/03/01 11:05:50;;;;;;;;;60.40;48.00;;;;;21.18;100.00;98217.94;6265798;27;96319;-57
2024/03/01 11:08:58;;;;;;;;;57.00;46.00;;;;;21.43;100.00;98211.91;6265646;27;96296;-55
2024/03/01 11:12:08;;;;;;;;;58.40;46.00;;;;;21.95;100.00;98204.09;6265731;27;96290;-55
2024/03/01 11:15:15;;;;;;;;;59.40;46.00;;;;;22.70;100.00;98200.50;6275487;27;97023;-55
2024/03/01 11:18:23;;;;;;;;;60.40;47.80;;;;;23.63;100.00;98201.09;6288953;27;96346;-55
2024/03/01 11:21:32;;;;;;;;;58.20;47.00;;;;;24.80;100.00;98200.72;6290874;27;96981;-55
2024/03/01 11:24:41;;;;;;;;;60.00;46.00;;;;;26.05;100.00;98205.25;6291766;27;96973;-55
2024/03/01 11:27:52;;;;;;;;;60.00;47.00;;;;;26.41;100.00;98199.06;6291046;27;96503;-55
2024/03/01 11:31:02;;;;;;;;;57.00;46.00;;;;;26.87;100.00;98186.84;6291376;27;96299;-55
2024/03/01 11:34:07;;;;;;;;;58.00;45.50;;;;;27.33;100.00;98198.56;6289819;27;96318;-55
2024/03/01 11:37:25;;;;;;;;;58.75;46.00;;;;;28.26;100.00;98187.13;6288192;27;96545;-55
2024/03/01 11:40:44;;;;;;;;;56.75;44.75;;;;;28.88;100.00;98184.81;6288283;27;96453;-56
2024/03/01 11:44:03;;;;;;;;;57.00;46.00;;;;;29.00;100.00;98181.91;6288575;27;96691;-55
2024/03/01 11:47:19;;;;;;;;;57.00;45.60;;;;;28.75;100.00;98182.09;6290113;27;96548;-55
2024/03/01 11:50:44;;;;;;;;;58.00;47.00;;;;;28.19;100.00;98178.63;6290816;27;96576;-55
2024/03/01 11:54:17;;;;;;;;;58.00;45.60;;;;;26.90;100.00;98177.03;6292036;27;96436;-55
2024/03/01 11:57:31;;;;;;;;;56.00;44.60;;;;;25.82;100.00;98165.34;6287332;27;96209;-55
2024/03/01 12:00:48;;;;;;;;;57.25;45.25;;;;;25.15;100.00;98169.09;6288230;27;96324;-55
2024/03/01 12:04:03;;;;;;;;;56.75;45.50;;;;;24.39;100.00;98163.56;6290366;27;96442;-55
2024/03/01 12:07:46;;;;;;;;;58.00;45.40;;;;;24.17;100.00;98155.56;6277364;27;96918;-54
2024/03/01 12:11:03;;;;;;;;;56.50;46.00;;;;;24.01;100.00;98163.50;6275934;27;96947;-55
2024/03/01 12:14:12;;;;;;;;;57.40;45.80;;;;;23.63;100.00;98162.56;6269767;27;96303;-55
2024/03/01 12:17:22;;;;;;;;;53.60;44.60;;;;;23.35;100.00;98151.06;6281512;27;96273;-55
2024/03/01 12:20:30;;;;;;;;;60.00;46.00;;;;;22.83;100.00;98150.94;6276031;27;97527;-55
2024/03/01 12:23:44;;;;;;;;;59.20;46.40;;;;;22.24;100.00;98141.31;6280572;27;96840;-55
2024/03/01 12:27:11;;;;;;;;;62.00;47.00;;;;;21.66;100.00;98137.84;6274014;27;96487;-55
2024/03/01 12:30:23;;;;;;;;;58.20;46.80;;;;;21.17;100.00;98140.38;6266556;27;96925;-55
2024/03/01 12:33:40;;;;;;;;;56.00;44.00;;;;;20.84;100.00;98138.88;6273711;27;97092;-55
2024/03/01 12:36:53;;;;;;;;;59.25;46.00;;;;;20.51;100.00;98145.59;6280921;27;96261;-56
2024/03/01 12:40:15;;;;;;;;;60.40;46.40;;;;;20.19;100.00;98155.47;6285053;27;96928;-55
2024/03/01 12:43:33;;;;;;;;;61.00;47.60;;;;;19.96;100.00;98150.16;6273876;27;96334;-54
2024/03/01 12:47:02;;;;;;;;;62.75;48.00;;;;;19.84;100.00;98145.16;6291981;27;96310;-55
2024/03/01 12:50:23;;;;;;;;;63.00;48.00;;;;;19.51;100.00;98140.78;6303106;27;96324;-55
2024/03/01 12:54:01;;;;;;;;;62.00;48.00;;;;;19.21;100.00;98120.16;6301729;27;96961;-55
2024/03/01 12:57:21;;;;;;;;;62.00;47.00;;;;;19.08;100.00;98132.66;6278102;27;96285;-55
2024/03/01 13:00:30;;;;;;;;;62.00;46.00;;;;;18.89;100.00;98143.56;6295160;27;96370;-54
2024/03/01 13:03:45;;;;;;;;;60.40;46.40;;;;;18.80;100.00;98119.94;6285707;27;96283;-57
2024/03/01 13:06:51;;;;;;;;;61.40;47.00;;;;;18.59;100.00;98112.00;6278383;27;97029;-57
2024/03/01 13:09:59;;;;;;;;;60.20;48.00;;;;;18.58;100.00;98123.19;6282028;27;96297;-57
2024/03/01 13:13:14;;;;;;;;;61.80;46.20;;;;;18.54;100.00;98117.53;6296333;27;96363;-57
2024/03/01 13:16:20;;;;;;;;;61.00;48.00;;;;;18.45;100.00;98119.25;6278596;27;96319;-57
2024/03/01 13:19:33;;;;;;;;;58.60;47.00;;;;;18.11;100.00;98124.00;6286604;27;96601;-57
2024/03/01 13:22:42;;;;;;;;;62.20;46.60;;;;;17.80;100.00;98122.66;6292405;27;97008;-56
2024/03/01 13:25:59;;;;;;;;;63.00;49.00;;;;;17.70;100.00;98129.00;6287788;27;96360;-56
2024/03/01 13:29:07;;;;;;;;;61.80;47.00;;;;;17.52;100.00;98124.25;6290656;27;96341;-57
2024/03/01 13:32:17;;;;;;;;;62.40;49.00;;;;;17.32;100.00;98112.41;6289974;27;96923;-56
2024/03/01 13:35:23;;;;;;;;;60.80;46.80;;;;;17.25;100.00;98124.72;6288150;27;96220;-56
2024/03/01 13:38:32;;;;;;;;;58.40;46.20;;;;;17.18;100.00;98129.66;6287592;27;96626;-57
2024/03/01 13:41:39;;;;;;;;;61.60;46.40;;;;;17.13;100.00;98138.69;6279730;27;96331;-55
2024/03/01 13:44:46;;;;;;;;;59.00;46.25;;;;;16.93;100.00;98135.25;6270730;27;96503;-54
2024/03/01 13:47:59;;;;;;;;;59.00;47.00;;;;;16.95;100.00;98128.47;6278508;27;96449;-54
2024/03/01 13:51:04;;;;;;;;;59.00;46.00;;;;;17.05;100.00;98131.13;6258315;27;96877;-54
2024/03/01 13:54:09;;;;;;;;;60.50;47.00;;;;;17.04;100.00;98128.66;6279493;27;97239;-54
2024/03/01 13:57:12;;;;;;;;;60.00;47.00;;;;;16.93;100.00;98127.09;6275754;27;96294;-54
2024/03/01 14:00:19;;;;;;;;;60.00;46.00;;;;;16.87;100.00;98116.22;6279865;27;96438;-54
2024/03/01 14:03:30;;;;;;;;;57.40;45.20;;;;;16.89;100.00;98129.56;6288146;27;96508;-54
2024/03/01 14:06:33;;;;;;;;;60.00;46.00;;;;;16.82;100.00;98129.06;6270430;27;96685;-54
2024/03/01 14:09:40;;;;;;;;;57.40;45.40;;;;;16.77;100.00;98121.72;6272430;27;96359;-54
2024/03/01 14:12:44;;;;;;;;;59.60;45.40;;;;;16.78;100.00;98126.09;6274826;27;96599;-54
2024/03/01 14:15:47;;;;;;;;;56.00;44.00;;;;;16.56;100.00;98103.03;6277870;27;96952;-54
2024/03/01 14:18:52;;;;;;;;;56.00;43.00;;;;;16.49;100.00;98119.66;6268705;27;96651;-54
2024/03/01 14:21:55;;;;;;;;;60.00;46.20;;;;;16.44;100.00;98119.69;6285746;27;96528;-54
2024/03/01 14:24:58;;;;;;;;;56.00;44.50;;;;;16.51;100.00;98113.94;6282463;27;96504;-54
2024/03/01 14:28:04;;;;;;;;;55.80;45.00;;;;;16.55;100.00;98101.41;6290005;27;96937;-54